createdAt,value
2018-11-12T00:00:58.862Z,6.17
2018-11-12T00:03:31.196Z,6.70
2018-11-12T00:06:08.832Z,7.30
2018-11-12T00:08:37.473Z,7.10
2018-11-12T00:11:07.464Z,6.90
2018-11-12T00:13:41.479Z,7.20
2018-11-12T00:16:20.512Z,6.60
2018-11-12T00:18:52.353Z,6.60
2018-11-12T00:21:23.865Z,6.83
2018-11-12T00:23:53.586Z,6.33
2018-11-12T00:26:22.319Z,6.63
2018-11-12T00:28:55.206Z,6.47
2018-11-12T00:31:25.199Z,5.97
2018-11-12T00:33:54.557Z,6.73
2018-11-12T00:36:33.393Z,6.00
2018-11-12T00:39:05.495Z,6.13
2018-11-12T00:41:35.834Z,6.87
2018-11-12T00:46:47.529Z,6.77
2018-11-12T00:49:16.601Z,7.60
2018-11-12T00:51:45.577Z,7.57
2018-11-12T00:54:16.685Z,6.53
2018-11-12T00:56:46.198Z,6.57
2018-11-12T00:59:15.403Z,6.97
2018-11-12T01:01:50.331Z,6.70
2018-11-12T01:04:19.811Z,6.83
2018-11-12T01:07:04.427Z,7.87
2018-11-12T01:09:37.845Z,7.57
2018-11-12T01:12:06.464Z,8.07
2018-11-12T01:19:38.172Z,7.13
2018-11-12T01:22:07.821Z,7.97
2018-11-12T01:24:36.853Z,8.23
2018-11-12T01:27:05.362Z,7.70
2018-11-12T01:29:34.701Z,8.70
2018-11-12T01:32:06.342Z,8.17
2018-11-12T01:37:25.349Z,8.27
2018-11-12T01:39:57.459Z,8.10
2018-11-12T01:42:25.946Z,8.13
2018-11-12T01:45:04.638Z,7.73
2018-11-12T01:47:34.090Z,8.13
2018-11-12T01:50:12.050Z,7.60
2018-11-12T01:52:41.878Z,8.67
2018-11-12T01:55:17.539Z,8.60
2018-11-12T01:57:51.046Z,8.87
2018-11-12T02:00:22.475Z,8.93
2018-11-12T02:02:52.468Z,10.13
2018-11-12T02:05:21.504Z,10.00
2018-11-12T02:07:55.734Z,9.67
2018-11-12T02:10:28.213Z,10.27
2018-11-12T02:13:04.961Z,10.83
2018-11-12T02:15:35.363Z,10.73
2018-11-12T02:18:08.994Z,10.20
2018-11-12T02:20:41.544Z,10.87
2018-11-12T02:25:47.811Z,10.43
2018-11-12T02:28:26.351Z,10.87
2018-11-12T02:30:54.823Z,10.57
2018-11-12T02:33:24.518Z,11.57
2018-11-12T02:35:54.796Z,11.37
2018-11-12T02:38:38.356Z,11.07
2018-11-12T02:41:06.977Z,11.97
2018-11-12T02:43:43.226Z,12.90
2018-11-12T02:46:20.443Z,10.77
2018-11-12T02:48:58.359Z,12.10
2018-11-12T02:51:33.547Z,12.93
2018-11-12T02:54:10.096Z,12.10
2018-11-12T02:56:43.275Z,11.90
2018-11-12T02:59:14.575Z,12.53
2018-11-12T03:01:58.038Z,12.60
2018-11-12T03:04:27.827Z,13.07
2018-11-12T03:09:43.775Z,12.70
2018-11-12T03:12:13.885Z,12.97
2018-11-12T03:14:44.916Z,14.17
2018-11-12T03:17:18.513Z,12.60
2018-11-12T03:19:52.571Z,13.07
2018-11-12T03:22:21.065Z,13.67
2018-11-12T03:25:02.612Z,12.83
2018-11-12T03:27:37.750Z,12.77
2018-11-12T03:30:07.663Z,13.20
2018-11-12T03:32:36.539Z,13.27
2018-11-12T03:35:07.085Z,13.67
2018-11-12T03:37:35.632Z,13.70
2018-11-12T03:40:08.403Z,13.70
2018-11-12T03:42:36.906Z,14.20
2018-11-12T03:45:09.076Z,13.67
2018-11-12T03:47:39.446Z,14.70
2018-11-12T03:50:15.112Z,15.20
2018-11-12T03:52:45.734Z,14.13
2018-11-12T03:55:23.028Z,15.00
2018-11-12T03:58:02.901Z,15.10
2018-11-12T04:00:37.644Z,16.13
2018-11-12T04:03:10.398Z,16.23
2018-11-12T04:05:42.266Z,15.43
2018-11-12T04:08:10.820Z,14.90
2018-11-12T04:10:40.019Z,15.63
2018-11-12T04:13:08.560Z,17.53
2018-11-12T04:20:55.662Z,15.47
2018-11-12T04:23:26.370Z,16.40
2018-11-12T04:26:01.536Z,16.53
2018-11-12T04:31:05.689Z,15.77
2018-11-12T04:33:34.978Z,17.10
2018-11-12T04:36:12.094Z,16.00
2018-11-12T04:38:41.310Z,17.40
2018-11-12T04:41:09.864Z,18.30
2018-11-12T04:43:38.401Z,18.40
2018-11-12T04:46:11.495Z,19.47
2018-11-12T04:48:44.181Z,18.30
2018-11-12T04:52:15.248Z,18.40
2018-11-12T04:54:44.223Z,19.17
2018-11-12T04:57:13.218Z,18.00
2018-11-12T05:02:16.838Z,19.07
2018-11-12T05:04:47.202Z,16.73
2018-11-12T05:07:15.907Z,19.27
2018-11-12T05:09:44.474Z,17.90
2018-11-12T05:12:13.023Z,18.10
2018-11-12T05:14:44.424Z,18.67
2018-11-12T05:17:13.525Z,17.33
2018-11-12T05:19:42.149Z,17.07
2018-11-12T05:22:11.278Z,16.67
2018-11-12T05:24:41.542Z,16.77
2018-11-12T05:27:20.474Z,16.57
2018-11-12T05:29:51.098Z,16.23
2018-11-12T05:32:30.342Z,16.90
2018-11-12T05:35:04.262Z,18.13
2018-11-12T05:37:36.953Z,16.47
2018-11-12T05:40:08.812Z,16.57
2018-11-12T05:48:19.350Z,17.47
2018-11-12T05:50:49.894Z,17.60
2018-11-12T05:53:24.054Z,17.50
2018-11-12T05:55:53.758Z,16.17
2018-11-12T05:58:27.420Z,17.80
2018-11-12T06:00:59.188Z,17.07
2018-11-12T06:03:45.679Z,15.73
2018-11-12T06:06:18.495Z,16.67
2018-11-12T06:08:49.673Z,15.33
2018-11-12T06:11:19.195Z,15.87
2018-11-12T06:13:48.248Z,16.10
2018-11-12T06:16:18.311Z,16.67
2018-11-12T06:18:47.380Z,17.13
2018-11-12T06:21:17.986Z,16.50
2018-11-12T06:23:51.511Z,16.73
2018-11-12T06:26:25.534Z,17.67
2018-11-12T06:28:59.171Z,16.13
2018-11-12T06:31:29.894Z,17.50
2018-11-12T06:39:16.520Z,18.40
2018-11-12T06:41:45.901Z,16.10
2018-11-12T06:44:23.387Z,18.10
2018-11-12T06:46:53.927Z,16.70
2018-11-12T06:49:26.533Z,17.77
2018-11-12T06:51:55.020Z,18.60
2018-11-12T06:54:23.533Z,19.27
2018-11-12T06:56:52.038Z,18.03
2018-11-12T06:59:20.594Z,18.00
2018-11-12T07:01:49.083Z,16.97
2018-11-12T07:04:17.575Z,18.97
2018-11-12T07:06:46.395Z,18.53
2018-11-12T07:09:14.878Z,20.77
2018-11-12T07:11:43.419Z,20.30
2018-11-12T07:14:12.171Z,19.37
2018-11-12T07:16:40.678Z,19.20
2018-11-12T07:19:09.199Z,19.33
2018-11-12T07:21:37.802Z,18.97
2018-11-12T07:24:06.319Z,20.03
2018-11-12T07:26:34.830Z,18.67
2018-11-12T07:29:03.341Z,20.30
2018-11-12T07:31:37.054Z,18.57
2018-11-12T07:34:05.655Z,19.03
2018-11-12T07:36:36.516Z,18.37
2018-11-12T07:39:08.009Z,17.50
2018-11-12T07:41:38.970Z,17.77
2018-11-12T07:44:07.712Z,16.77
2018-11-12T07:46:36.193Z,17.73
2018-11-12T07:49:04.695Z,18.83
2018-11-12T07:51:33.244Z,17.93
2018-11-12T07:54:01.757Z,16.73
2018-11-12T07:56:30.438Z,15.23
2018-11-12T07:58:58.805Z,16.33
2018-11-12T08:01:27.351Z,16.27
2018-11-12T08:03:55.863Z,15.87
2018-11-12T08:06:24.375Z,16.30
2018-11-12T08:08:53.501Z,15.67
2018-11-12T08:11:22.040Z,14.60
2018-11-12T08:13:50.553Z,16.37
2018-11-12T08:16:19.059Z,16.20
2018-11-12T08:18:47.561Z,16.10
2018-11-12T08:21:16.130Z,15.10
2018-11-12T08:23:45.863Z,14.77
2018-11-12T08:26:16.201Z,15.60
2018-11-12T08:28:46.049Z,16.10
2018-11-12T08:31:15.483Z,15.43
2018-11-12T08:33:47.557Z,16.17
2018-11-12T08:36:16.100Z,15.40
2018-11-12T08:38:52.564Z,15.83
2018-11-12T08:41:21.969Z,15.77
2018-11-12T08:43:51.541Z,15.07
2018-11-12T08:46:21.306Z,16.37
2018-11-12T08:48:56.230Z,16.53
2018-11-12T08:51:27.304Z,15.07
2018-11-12T08:53:59.520Z,16.00
2018-11-12T08:56:56.664Z,15.93
2018-11-12T08:59:25.192Z,14.50
2018-11-12T09:01:53.732Z,15.03
2018-11-12T09:04:22.244Z,14.80
2018-11-12T09:06:51.365Z,14.23
2018-11-12T09:09:19.869Z,14.17
2018-11-12T09:11:48.370Z,14.53
2018-11-12T09:14:16.882Z,14.70
2018-11-12T09:16:45.394Z,13.10
2018-11-12T09:19:13.885Z,13.33
2018-11-12T09:21:46.907Z,14.33
2018-11-12T09:24:21.952Z,10.93
2018-11-12T09:26:51.496Z,10.77
2018-11-12T09:29:22.686Z,10.57
2018-11-12T09:31:51.302Z,12.17
2018-11-12T09:34:21.473Z,11.83
2018-11-12T09:36:56.066Z,11.87
2018-11-12T09:39:24.884Z,11.63
2018-11-12T09:41:58.148Z,12.17
2018-11-12T09:44:27.957Z,11.40
2018-11-12T09:46:57.223Z,11.20
2018-11-12T09:49:34.423Z,9.33
2018-11-12T09:52:13.222Z,9.60
2018-11-12T09:54:46.592Z,8.23
2018-11-12T09:57:15.649Z,7.70
2018-11-12T09:59:44.174Z,6.33
2018-11-12T10:02:13.773Z,5.63
2018-11-12T10:04:43.237Z,5.60
2018-11-12T10:07:15.271Z,5.27
2018-11-12T10:09:45.845Z,5.50
2018-11-12T10:12:32.023Z,5.10
2018-11-12T10:15:01.639Z,5.60
2018-11-12T10:17:29.566Z,5.67
2018-11-12T10:19:55.026Z,5.50
2018-11-12T10:22:23.533Z,6.60
2018-11-12T10:25:01.402Z,6.97
2018-11-12T10:27:29.915Z,7.57
2018-11-12T10:29:58.429Z,7.97
2018-11-12T10:32:28.594Z,9.00
2018-11-12T10:35:04.674Z,8.40
2018-11-12T10:37:38.076Z,9.03
2018-11-12T10:40:08.215Z,8.93
2018-11-12T10:42:36.735Z,8.93
2018-11-12T10:45:05.234Z,9.53
2018-11-12T10:47:33.724Z,7.60
2018-11-12T10:50:02.205Z,7.17
2018-11-12T10:52:31.322Z,6.40
2018-11-12T10:55:05.369Z,6.97
2018-11-12T10:57:33.077Z,6.90
2018-11-12T11:00:03.511Z,7.50
2018-11-12T11:02:41.978Z,6.40
2018-11-12T11:05:17.815Z,5.60
2018-11-12T11:10:25.906Z,5.47
2018-11-12T11:12:55.245Z,6.50
2018-11-12T11:15:25.928Z,5.83
2018-11-12T11:17:56.737Z,6.23
2018-11-12T11:20:32.681Z,6.37
2018-11-12T11:23:01.365Z,6.13
2018-11-12T11:25:30.121Z,7.13
2018-11-12T11:27:58.644Z,7.13
2018-11-12T11:30:27.827Z,6.93
2018-11-12T11:32:56.341Z,7.87
2018-11-12T11:35:24.860Z,8.13
2018-11-12T11:37:53.427Z,8.63
2018-11-12T11:40:23.090Z,7.73
2018-11-12T11:42:51.584Z,8.73
2018-11-12T11:45:21.148Z,9.65
2018-11-12T11:47:50.538Z,8.50
2018-11-12T11:50:20.506Z,8.40
2018-11-12T11:52:48.882Z,7.90
2018-11-12T11:55:18.643Z,9.00
2018-11-12T11:57:47.607Z,7.87
2018-11-12T12:00:17.736Z,8.27
2018-11-12T12:02:48.006Z,8.83
2018-11-12T12:05:17.302Z,9.63
2018-11-12T12:07:45.802Z,8.70
2018-11-12T12:10:15.060Z,8.70
2018-11-12T12:12:44.718Z,8.30
2018-11-12T12:15:14.471Z,7.87
2018-11-12T12:17:43.548Z,7.47
2018-11-12T12:20:16.332Z,7.67
2018-11-12T12:22:44.900Z,6.57
2018-11-12T12:25:14.693Z,5.63
2018-11-12T12:27:44.139Z,5.47
2018-11-12T12:30:14.715Z,5.27
2018-11-12T12:32:46.190Z,5.17
2018-11-12T12:35:15.324Z,5.10
2018-11-12T12:37:44.560Z,5.00
2018-11-12T12:40:14.920Z,5.50
2018-11-12T12:42:53.061Z,6.23
2018-11-12T12:45:23.111Z,6.53
2018-11-12T12:47:57.200Z,5.87
2018-11-12T12:50:26.254Z,6.40
2018-11-12T12:52:54.755Z,7.50
2018-11-12T12:55:23.314Z,7.37
2018-11-12T12:57:51.787Z,7.70
2018-11-12T13:00:25.449Z,6.77
2018-11-12T13:02:59.884Z,6.47
2018-11-12T13:05:29.107Z,6.20
2018-11-12T13:07:58.380Z,5.00
2018-11-12T13:10:26.903Z,5.93
2018-11-12T13:12:55.382Z,6.07
2018-11-12T13:15:24.777Z,5.77
2018-11-12T13:17:55.275Z,5.63
2018-11-12T13:20:31.383Z,5.33
2018-11-12T13:23:04.804Z,5.37
2018-11-12T13:25:39.171Z,4.13
2018-11-12T13:28:07.689Z,5.00
2018-11-12T13:33:10.607Z,5.10
2018-11-12T13:35:39.146Z,4.37
2018-11-12T13:38:08.342Z,4.07
2018-11-12T13:43:24.887Z,3.70
2018-11-12T13:45:56.986Z,3.80
2018-11-12T13:48:25.511Z,3.43
2018-11-12T13:50:57.902Z,3.80
2018-11-12T13:56:07.660Z,3.80
2018-11-12T13:58:36.165Z,4.50
2018-11-12T14:01:04.656Z,3.90
2018-11-12T14:03:33.177Z,4.17
2018-11-12T14:06:07.971Z,3.77
2018-11-12T14:08:43.342Z,4.00
2018-11-12T14:11:12.101Z,4.87
2018-11-12T14:13:44.896Z,4.43
2018-11-12T14:16:13.406Z,5.43
2018-11-12T14:18:42.396Z,4.87
2018-11-12T14:21:21.325Z,5.10
2018-11-12T14:26:56.022Z,4.50
2018-11-12T14:32:05.696Z,5.67
2018-11-12T14:34:34.194Z,5.40
2018-11-12T14:37:02.713Z,6.03
2018-11-12T14:39:31.832Z,6.20
2018-11-12T14:42:00.337Z,6.03
2018-11-12T14:44:29.242Z,6.93
2018-11-12T14:46:57.822Z,5.87
2018-11-12T14:49:26.325Z,6.40
2018-11-12T14:51:55.632Z,7.13
2018-11-12T14:54:24.139Z,6.83
2018-11-12T14:56:54.222Z,7.07
2018-11-12T14:59:33.430Z,6.77
2018-11-12T15:02:01.936Z,6.67
2018-11-12T15:04:30.487Z,7.27
2018-11-12T15:07:00.019Z,6.87
2018-11-12T15:09:28.509Z,7.00
2018-11-12T15:11:59.953Z,7.83
2018-11-12T15:17:12.383Z,7.00
2018-11-12T15:22:41.352Z,7.27
2018-11-12T15:25:11.066Z,7.43
2018-11-12T15:27:39.592Z,7.67
2018-11-12T15:30:09.139Z,7.83
2018-11-12T15:32:38.909Z,7.67
2018-11-12T15:35:17.666Z,8.03
2018-11-12T15:37:47.144Z,8.80
2018-11-12T15:40:28.098Z,8.40
2018-11-12T15:43:12.510Z,8.37
2018-11-12T15:45:42.712Z,7.70
2018-11-12T15:48:17.913Z,7.27
2018-11-12T15:50:47.586Z,7.33
2018-11-12T15:53:16.936Z,6.77
2018-11-12T15:55:55.430Z,6.13
2018-11-12T15:58:24.089Z,6.47
2018-11-12T16:00:52.800Z,7.00
2018-11-12T16:03:21.382Z,6.77
2018-11-12T16:05:54.507Z,7.07
2018-11-12T16:08:23.518Z,6.67
2018-11-12T16:10:52.059Z,6.23
2018-11-12T16:13:25.609Z,7.70
2018-11-12T16:15:56.426Z,6.77
2018-11-12T16:18:28.840Z,6.97
2018-11-12T16:21:02.262Z,7.70
2018-11-12T16:23:35.219Z,6.60
2018-11-12T16:26:04.646Z,7.00
2018-11-12T16:28:34.330Z,6.57
2018-11-12T16:31:10.995Z,8.00
2018-11-12T16:33:48.434Z,8.27
2018-11-12T16:36:22.547Z,7.77
2018-11-12T16:38:55.099Z,8.17
2018-11-12T16:41:39.686Z,9.00
2018-11-12T16:44:21.096Z,8.80
2018-11-12T16:46:52.830Z,8.67
2018-11-12T16:49:24.483Z,8.60
2018-11-12T16:52:04.828Z,8.50
2018-11-12T16:54:36.026Z,8.13
2018-11-12T16:57:07.515Z,7.77
2018-11-12T16:59:39.763Z,8.47
2018-11-12T17:02:15.190Z,8.97
2018-11-12T17:04:53.036Z,8.60
2018-11-12T17:07:26.999Z,9.07
2018-11-12T17:09:59.419Z,10.33
2018-11-12T17:12:31.760Z,9.53
2018-11-12T17:15:07.073Z,10.53
2018-11-12T17:17:38.050Z,12.63
2018-11-12T17:20:09.036Z,11.33
2018-11-12T17:22:40.286Z,11.10
2018-11-12T17:25:10.476Z,11.27
2018-11-12T17:27:40.413Z,10.43
2018-11-12T17:30:10.513Z,10.40
2018-11-12T17:32:39.670Z,10.10
2018-11-12T17:35:10.665Z,10.33
2018-11-12T17:37:42.298Z,9.37
2018-11-12T17:40:14.699Z,9.90
2018-11-12T17:42:46.362Z,9.40
2018-11-12T17:45:17.235Z,9.30
2018-11-12T17:47:47.608Z,9.33
2018-11-12T17:50:17.537Z,8.80
2018-11-12T17:52:47.143Z,9.67
2018-11-12T17:55:15.886Z,10.33
2018-11-12T17:57:44.857Z,11.57
2018-11-12T18:00:22.486Z,10.93
2018-11-12T18:02:54.718Z,11.83
2018-11-12T18:05:26.156Z,11.43
2018-11-12T18:08:00.799Z,12.33
2018-11-12T18:10:31.745Z,11.63
2018-11-12T18:13:06.828Z,12.00
2018-11-12T18:15:40.597Z,12.30
2018-11-12T18:18:17.523Z,11.17
2018-11-12T18:20:47.264Z,10.83
2018-11-12T18:23:19.215Z,11.30
2018-11-12T18:25:51.934Z,11.37
2018-11-12T18:28:24.729Z,11.43
2018-11-12T18:30:53.871Z,11.93
2018-11-12T18:33:24.138Z,11.43
2018-11-12T18:35:53.657Z,11.90
2018-11-12T18:38:31.102Z,10.40
2018-11-12T18:41:03.970Z,11.23
2018-11-12T18:43:35.591Z,11.27
2018-11-12T18:46:10.691Z,11.23
2018-11-12T18:48:40.568Z,10.90
2018-11-12T18:51:09.070Z,10.87
2018-11-12T18:53:38.788Z,10.87
2018-11-12T18:56:07.282Z,10.67
2018-11-12T18:58:36.650Z,9.90
2018-11-12T19:01:05.466Z,10.37
2018-11-12T19:03:36.225Z,10.10
2018-11-12T19:06:05.297Z,10.60
2018-11-12T19:08:33.845Z,9.73
2018-11-12T19:11:03.069Z,10.47
2018-11-12T19:13:47.527Z,10.47
2018-11-12T19:16:18.217Z,10.40
2018-11-12T19:18:47.042Z,10.20
2018-11-12T19:21:15.597Z,10.90
2018-11-12T19:23:45.643Z,10.07
2018-11-12T19:26:19.916Z,9.33
2018-11-12T19:28:48.526Z,9.47
2018-11-12T19:31:23.961Z,11.40
2018-11-12T19:33:59.015Z,11.48
2018-11-12T19:36:27.696Z,8.67
2018-11-12T19:38:59.660Z,9.37
2018-11-12T19:41:30.162Z,8.23
2018-11-12T19:44:00.674Z,7.90
2018-11-12T19:46:31.930Z,9.00
2018-11-12T19:49:05.390Z,8.20
2018-11-12T19:51:35.577Z,9.13
2018-11-12T19:54:06.015Z,9.13
2018-11-12T19:56:34.866Z,8.77
2018-11-12T19:59:04.304Z,8.67
2018-11-12T20:01:32.757Z,9.17
2018-11-12T20:06:59.539Z,9.17
2018-11-12T20:09:28.730Z,8.70
2018-11-12T20:11:58.929Z,8.87
2018-11-12T20:14:30.997Z,8.50
2018-11-12T20:17:04.091Z,8.73
2018-11-12T20:19:32.573Z,8.90
2018-11-12T20:22:01.069Z,8.13
2018-11-12T20:24:30.857Z,8.87
2018-11-12T20:27:06.039Z,8.90
2018-11-12T20:29:34.898Z,10.58
2018-11-12T20:32:03.846Z,8.63
2018-11-12T20:34:33.445Z,8.47
2018-11-12T20:37:02.353Z,8.33
2018-11-12T20:39:40.995Z,8.47
2018-11-12T20:42:09.546Z,8.67
2018-11-12T20:44:40.695Z,7.83
2018-11-12T20:47:09.194Z,8.10
2018-11-12T20:49:37.726Z,8.00
2018-11-12T20:52:06.978Z,9.33
2018-11-12T20:54:41.410Z,8.40
2018-11-12T20:57:11.619Z,8.77
2018-11-12T20:59:40.778Z,8.87
2018-11-12T21:02:09.883Z,8.33
2018-11-12T21:04:38.384Z,9.00
2018-11-12T21:07:07.627Z,8.93
2018-11-12T21:09:37.093Z,8.37
2018-11-12T21:12:07.231Z,8.63
2018-11-12T21:14:36.124Z,9.47
2018-11-12T21:17:12.440Z,9.57
2018-11-12T21:19:41.822Z,8.87
2018-11-12T21:22:19.990Z,8.70
2018-11-12T21:24:52.591Z,8.33
2018-11-12T21:27:25.358Z,8.40
2018-11-12T21:29:58.964Z,9.10
2018-11-12T21:32:28.339Z,9.30
2018-11-12T21:34:57.677Z,9.27
2018-11-12T21:37:28.074Z,9.53
2018-11-12T21:39:56.592Z,9.37
2018-11-12T21:42:25.401Z,8.87
2018-11-12T21:44:55.621Z,9.60
2018-11-12T21:47:30.293Z,8.97
2018-11-12T21:49:59.199Z,8.33
2018-11-12T21:52:29.282Z,8.33
2018-11-12T21:55:01.712Z,9.30
2018-11-12T22:02:58.516Z,8.03
2018-11-12T22:05:34.775Z,7.97
2018-11-12T22:08:08.117Z,8.23
2018-11-12T22:10:39.062Z,7.83
2018-11-12T22:13:10.001Z,7.13
2018-11-12T22:15:41.911Z,7.80
2018-11-12T22:18:12.076Z,7.43
2018-11-12T22:20:42.465Z,7.40
2018-11-12T22:23:12.069Z,7.30
2018-11-12T22:25:41.192Z,7.33
2018-11-12T22:28:16.426Z,7.33
2018-11-12T22:30:50.888Z,6.47
2018-11-12T22:33:26.179Z,6.87
2018-11-12T22:35:56.958Z,7.07
2018-11-12T22:41:04.842Z,6.60
2018-11-12T22:43:41.944Z,7.10
2018-11-12T22:46:15.175Z,6.47
2018-11-12T22:48:43.699Z,6.70
2018-11-12T22:51:12.803Z,6.50
2018-11-12T22:53:41.737Z,6.37
2018-11-12T23:03:58.174Z,7.00
2018-11-12T23:06:30.902Z,6.97
2018-11-12T23:08:59.509Z,7.13
2018-11-12T23:11:28.854Z,6.77
2018-11-12T23:14:02.647Z,6.70
2018-11-12T23:16:35.465Z,6.87
2018-11-12T23:19:03.986Z,6.97
2018-11-12T23:21:34.829Z,7.37
2018-11-12T23:24:03.368Z,7.47
2018-11-12T23:26:31.878Z,7.80
2018-11-12T23:29:00.430Z,8.07
2018-11-12T23:31:29.518Z,8.00
2018-11-12T23:33:58.806Z,7.60
2018-11-12T23:36:43.110Z,7.43
2018-11-12T23:39:13.633Z,7.87
2018-11-12T23:41:43.874Z,7.93
2018-11-12T23:44:12.432Z,7.53
2018-11-12T23:46:40.988Z,7.70
2018-11-12T23:49:09.521Z,8.40
2018-11-12T23:51:38.034Z,7.83
2018-11-12T23:54:06.542Z,7.97
2018-11-12T23:56:35.037Z,8.60
2018-11-12T23:59:03.535Z,7.80
